Date,TemperatureHighF,TemperatureAvgF,TemperatureLowF,DewpointHighF,DewpointAvgF,DewpointLowF,HumidityHigh,HumidityAvg,HumidityLow,PressureMaxIn,PressureMinIn,WindSpeedMaxMPH,WindSpeedAvgMPH,GustSpeedMaxMPH,PrecipitationSumIn
2013-7-1,78.0,71.3,65.4,75.0,70.2,65.0,99,96,87,30.00,29.89,2,0,5,0.32
2013-7-2,85.9,76.4,68.5,77.0,72.9,68.0,98,89,71,30.10,29.99,7,1,15,0.01
2013-7-3,87.6,78.7,71.1,77.0,73.5,70.0,97,84,69,30.17,30.08,10,1,11,0.00
2013-7-4,90.8,79.8,67.4,78.0,73.4,67.0,99,82,62,30.18,30.05,6,1,12,0.00
2013-7-5,92.9,81.3,69.2,79.0,74.2,69.0,99,81,61,30.13,30.00,7,2,11,0.00
2013-7-6,90.7,78.8,69.8,76.0,72.0,69.0,98,81,56,30.08,29.98,6,1,10,0.00
2013-7-7,90.9,77.2,68.4,79.0,73.2,68.0,98,88,68,30.02,29.88,3,0,12,0.03
2013-7-8,86.8,76.3,69.0,73.0,70.5,69.0,99,83,58,30.00,29.91,5,1,13,0.01
2013-7-9,88.9,77.1,66.2,77.0,71.2,66.0,99,83,59,30.06,29.94,6,0,6,0.00
2013-7-10,84.2,76.9,71.3,79.0,73.3,70.0,95,88,75,29.96,29.75,9,2,14,0.42
2013-7-11,82.7,75.0,69.1,73.0,66.7,59.0,98,77,50,29.95,29.73,8,1,13,0.00
2013-7-12,86.7,73.0,65.3,71.0,64.4,59.0,89,75,57,30.14,29.95,6,1,8,0.00
2013-7-13,82.1,71.4,63.3,74.0,67.6,62.0,98,88,75,30.27,30.15,4,0,6,0.12
2013-7-14,93.1,78.1,67.5,79.0,73.3,67.0,99,86,61,30.31,30.19,4,0,11,0.00
2013-7-15,91.5,80.5,69.6,76.0,71.0,66.0,98,75,52,30.22,30.11,7,2,16,0.00
2013-7-16,95.1,81.0,66.6,76.0,70.2,65.0,96,72,46,30.20,30.12,4,1,9,0.00
2013-7-17,98.0,82.2,67.5,79.0,72.3,67.0,97,74,44,30.19,29.99,4,0,8,0.00
2013-7-18,95.1,84.4,73.2,79.0,74.1,71.0,95,73,49,30.02,29.90,8,1,15,0.00
2013-7-19,95.5,86.0,74.4,76.0,72.5,66.0,91,66,45,29.91,29.69,11,3,18,0.00
2013-7-20,87.4,77.5,66.4,75.0,67.3,57.0,91,72,54,29.83,29.68,16,2,16,0.00
2013-7-21,85.6,72.2,59.9,71.0,64.8,58.0,96,79,52,29.96,29.84,4,0,4,0.00
2013-7-22,87.7,74.1,64.3,72.0,65.9,59.0,96,76,53,29.99,29.80,5,1,12,0.06
2013-7-23,87.6,74.9,67.5,75.0,71.0,67.0,99,88,66,29.79,29.53,5,1,9,1.90
2013-7-24,75.2,68.7,60.6,68.0,60.7,52.0,98,77,55,30.00,29.58,9,2,18,0.00
2013-7-25,76.4,63.6,52.8,61.0,54.1,49.0,89,72,52,30.10,30.01,5,1,8,0.00
2013-7-26,82.5,68.2,58.2,65.0,58.7,55.0,96,73,51,30.07,29.98,8,1,12,0.00
2013-7-27,84.7,69.6,52.7,69.0,61.8,53.0,99,79,52,30.04,29.92,3,1,9,0.00
2013-7-28,76.2,68.5,65.9,71.0,66.3,63.0,97,92,84,29.96,29.90,5,1,9,0.57
2013-7-29,83.2,71.0,63.2,68.0,63.8,57.0,98,80,52,30.09,29.93,4,1,9,0.00
2013-7-30,78.2,65.4,53.9,63.0,58.4,53.0,99,80,51,30.16,30.07,8,1,13,0.00
2013-7-31,81.8,69.2,53.8,67.0,60.8,53.0,99,77,53,30.15,30.00,4,0,6,0.00